sensor_id;sensor_type;location;lat;lon;timestamp;P1;durP1;ratioP1;P2;durP2;ratioP2
10473;SDS011;5284;50.446;7.904;2022-08-14T00:01:13;14.10;;;6.72;;
10473;SDS011;5284;50.446;7.904;2022-08-14T00:06:24;13.23;;;8.00;;
10473;SDS011;5284;50.446;7.904;2022-08-14T00:11:31;10.55;;;6.15;;
10473;SDS011;5284;50.446;7.904;2022-08-14T00:16:34;8.25;;;6.15;;
10473;SDS011;5284;50.446;7.904;2022-08-14T00:21:45;14.15;;;7.60;;
10473;SDS011;5284;50.446;7.904;2022-08-14T00:26:52;11.20;;;6.85;;
10473;SDS011;5284;50.446;7.904;2022-08-14T00:31:55;16.33;;;7.65;;
10473;SDS011;5284;50.446;7.904;2022-08-14T00:36:58;13.27;;;7.72;;
10473;SDS011;5284;50.446;7.904;2022-08-14T00:42:03;11.00;;;7.35;;
10473;SDS011;5284;50.446;7.904;2022-08-14T00:47:22;13.48;;;7.95;;
10473;SDS011;5284;50.446;7.904;2022-08-14T00:52:27;9.93;;;7.68;;
10473;SDS011;5284;50.446;7.904;2022-08-14T00:57:35;12.05;;;7.88;;
10473;SDS011;5284;50.446;7.904;2022-08-14T01:02:40;10.07;;;7.70;;
10473;SDS011;5284;50.446;7.904;2022-08-14T01:07:54;14.38;;;8.07;;
10473;SDS011;5284;50.446;7.904;2022-08-14T01:13:00;10.38;;;7.80;;
10473;SDS011;5284;50.446;7.904;2022-08-14T01:18:03;12.95;;;8.25;;
10473;SDS011;5284;50.446;7.904;2022-08-14T01:23:29;16.70;;;7.55;;
10473;SDS011;5284;50.446;7.904;2022-08-14T01:28:48;13.65;;;7.65;;
10473;SDS011;5284;50.446;7.904;2022-08-14T01:33:59;9.98;;;7.20;;
10473;SDS011;5284;50.446;7.904;2022-08-14T01:39:24;12.77;;;7.43;;
10473;SDS011;5284;50.446;7.904;2022-08-14T01:44:32;13.40;;;7.38;;
10473;SDS011;5284;50.446;7.904;2022-08-14T01:49:41;13.75;;;7.93;;
10473;SDS011;5284;50.446;7.904;2022-08-14T01:55:00;18.85;;;9.20;;
10473;SDS011;5284;50.446;7.904;2022-08-14T02:00:08;9.88;;;7.50;;
10473;SDS011;5284;50.446;7.904;2022-08-14T02:05:18;15.27;;;9.25;;
10473;SDS011;5284;50.446;7.904;2022-08-14T02:10:24;14.95;;;8.52;;
10473;SDS011;5284;50.446;7.904;2022-08-14T02:15:29;11.48;;;7.50;;
10473;SDS011;5284;50.446;7.904;2022-08-14T02:20:32;14.68;;;7.68;;
10473;SDS011;5284;50.446;7.904;2022-08-14T02:25:37;16.10;;;8.48;;
10473;SDS011;5284;50.446;7.904;2022-08-14T02:30:40;12.75;;;7.93;;
10473;SDS011;5284;50.446;7.904;2022-08-14T02:35:45;16.10;;;8.43;;
10473;SDS011;5284;50.446;7.904;2022-08-14T02:41:00;10.35;;;7.55;;
10473;SDS011;5284;50.446;7.904;2022-08-14T02:46:09;12.18;;;7.72;;
10473;SDS011;5284;50.446;7.904;2022-08-14T02:51:13;11.05;;;7.82;;
10473;SDS011;5284;50.446;7.904;2022-08-14T02:56:20;17.08;;;8.50;;
10473;SDS011;5284;50.446;7.904;2022-08-14T03:01:43;12.95;;;8.55;;
10473;SDS011;5284;50.446;7.904;2022-08-14T03:06:51;11.05;;;8.13;;
10473;SDS011;5284;50.446;7.904;2022-08-14T03:12:10;13.60;;;8.97;;
10473;SDS011;5284;50.446;7.904;2022-08-14T03:17:27;14.25;;;8.90;;
10473;SDS011;5284;50.446;7.904;2022-08-14T03:22:41;15.25;;;8.82;;
10473;SDS011;5284;50.446;7.904;2022-08-14T03:27:51;10.52;;;7.82;;
10473;SDS011;5284;50.446;7.904;2022-08-14T03:32:59;20.05;;;8.00;;
10473;SDS011;5284;50.446;7.904;2022-08-14T03:38:03;11.13;;;8.80;;
10473;SDS011;5284;50.446;7.904;2022-08-14T03:43:30;13.50;;;8.93;;
10473;SDS011;5284;50.446;7.904;2022-08-14T03:48:33;12.52;;;8.73;;
10473;SDS011;5284;50.446;7.904;2022-08-14T03:58:47;12.68;;;8.55;;
10473;SDS011;5284;50.446;7.904;2022-08-14T04:08:58;16.40;;;10.40;;
10473;SDS011;5284;50.446;7.904;2022-08-14T07:38:28;13.82;;;9.60;;
10473;SDS011;5284;50.446;7.904;2022-08-14T07:43:38;11.57;;;8.73;;
10473;SDS011;5284;50.446;7.904;2022-08-14T07:48:41;17.42;;;9.63;;
10473;SDS011;5284;50.446;7.904;2022-08-14T07:53:49;15.20;;;9.93;;
10473;SDS011;5284;50.446;7.904;2022-08-14T07:58:57;15.25;;;9.27;;
10473;SDS011;5284;50.446;7.904;2022-08-14T08:04:01;13.07;;;9.00;;
10473;SDS011;5284;50.446;7.904;2022-08-14T08:09:20;35.65;;;19.25;;
10473;SDS011;5284;50.446;7.904;2022-08-14T08:14:32;11.85;;;8.45;;
10473;SDS011;5284;50.446;7.904;2022-08-14T08:19:55;10.90;;;7.03;;
10473;SDS011;5284;50.446;7.904;2022-08-14T08:25:00;15.80;;;8.60;;
10473;SDS011;5284;50.446;7.904;2022-08-14T08:30:14;9.45;;;7.38;;
10473;SDS011;5284;50.446;7.904;2022-08-14T08:35:19;15.32;;;7.18;;
10473;SDS011;5284;50.446;7.904;2022-08-14T08:40:27;8.20;;;6.80;;
10473;SDS011;5284;50.446;7.904;2022-08-14T08:45:33;14.23;;;7.97;;
10473;SDS011;5284;50.446;7.904;2022-08-14T08:50:37;8.63;;;7.20;;
10473;SDS011;5284;50.446;7.904;2022-08-14T08:55:43;14.18;;;9.02;;
10473;SDS011;5284;50.446;7.904;2022-08-14T09:00:48;12.55;;;6.95;;
10473;SDS011;5284;50.446;7.904;2022-08-14T09:05:55;8.57;;;6.05;;
10473;SDS011;5284;50.446;7.904;2022-08-14T09:11:04;9.43;;;7.43;;
10473;SDS011;5284;50.446;7.904;2022-08-14T09:16:22;7.35;;;6.63;;
10473;SDS011;5284;50.446;7.904;2022-08-14T09:21:27;11.63;;;7.23;;
10473;SDS011;5284;50.446;7.904;2022-08-14T09:26:33;7.75;;;6.07;;
10473;SDS011;5284;50.446;7.904;2022-08-14T09:31:39;10.85;;;7.28;;
10473;SDS011;5284;50.446;7.904;2022-08-14T09:36:58;6.65;;;5.50;;
10473;SDS011;5284;50.446;7.904;2022-08-14T09:42:27;9.02;;;6.32;;
10473;SDS011;5284;50.446;7.904;2022-08-14T09:47:46;10.02;;;7.40;;
10473;SDS011;5284;50.446;7.904;2022-08-14T09:52:53;7.63;;;4.65;;
10473;SDS011;5284;50.446;7.904;2022-08-14T09:58:09;5.78;;;4.70;;
10473;SDS011;5284;50.446;7.904;2022-08-14T10:03:24;16.85;;;6.93;;
10473;SDS011;5284;50.446;7.904;2022-08-14T10:08:41;7.10;;;5.78;;
10473;SDS011;5284;50.446;7.904;2022-08-14T10:13:55;11.82;;;5.63;;
10473;SDS011;5284;50.446;7.904;2022-08-14T10:19:03;6.95;;;5.70;;
10473;SDS011;5284;50.446;7.904;2022-08-14T10:24:10;6.05;;;5.20;;
10473;SDS011;5284;50.446;7.904;2022-08-14T10:29:28;5.78;;;4.90;;
10473;SDS011;5284;50.446;7.904;2022-08-14T10:34:33;9.40;;;5.63;;
10473;SDS011;5284;50.446;7.904;2022-08-14T10:39:41;8.88;;;5.70;;
10473;SDS011;5284;50.446;7.904;2022-08-14T10:45:14;7.15;;;5.60;;
10473;SDS011;5284;50.446;7.904;2022-08-14T10:50:27;8.85;;;5.80;;
10473;SDS011;5284;50.446;7.904;2022-08-14T10:55:31;9.73;;;4.38;;
10473;SDS011;5284;50.446;7.904;2022-08-14T11:00:54;6.40;;;4.53;;
10473;SDS011;5284;50.446;7.904;2022-08-14T11:05:58;6.72;;;4.82;;
10473;SDS011;5284;50.446;7.904;2022-08-14T11:11:03;7.15;;;4.25;;
10473;SDS011;5284;50.446;7.904;2022-08-14T11:16:10;6.70;;;4.38;;
10473;SDS011;5284;50.446;7.904;2022-08-14T11:21:15;5.15;;;4.30;;
10473;SDS011;5284;50.446;7.904;2022-08-14T11:26:23;4.93;;;3.85;;
10473;SDS011;5284;50.446;7.904;2022-08-14T11:31:31;6.28;;;4.53;;
10473;SDS011;5284;50.446;7.904;2022-08-14T11:36:39;4.60;;;3.60;;
10473;SDS011;5284;50.446;7.904;2022-08-14T11:42:02;5.70;;;4.40;;
10473;SDS011;5284;50.446;7.904;2022-08-14T11:47:27;7.65;;;4.15;;
10473;SDS011;5284;50.446;7.904;2022-08-14T11:52:44;4.97;;;4.05;;
10473;SDS011;5284;50.446;7.904;2022-08-14T11:58:00;5.32;;;3.72;;
10473;SDS011;5284;50.446;7.904;2022-08-14T12:03:06;4.63;;;4.00;;
10473;SDS011;5284;50.446;7.904;2022-08-14T12:08:15;4.97;;;4.20;;
10473;SDS011;5284;50.446;7.904;2022-08-14T12:18:36;4.80;;;4.15;;
10473;SDS011;5284;50.446;7.904;2022-08-14T12:23:45;6.18;;;4.25;;
10473;SDS011;5284;50.446;7.904;2022-08-14T12:28:51;4.72;;;3.97;;
10473;SDS011;5284;50.446;7.904;2022-08-14T12:34:02;5.53;;;4.32;;
10473;SDS011;5284;50.446;7.904;2022-08-14T12:39:16;4.65;;;4.15;;
10473;SDS011;5284;50.446;7.904;2022-08-14T12:44:27;4.55;;;3.83;;
10473;SDS011;5284;50.446;7.904;2022-08-14T12:49:32;6.47;;;3.58;;
10473;SDS011;5284;50.446;7.904;2022-08-14T12:54:35;8.65;;;3.78;;
10473;SDS011;5284;50.446;7.904;2022-08-14T13:00:11;4.25;;;3.75;;
10473;SDS011;5284;50.446;7.904;2022-08-14T13:05:26;7.53;;;3.37;;
10473;SDS011;5284;50.446;7.904;2022-08-14T13:10:31;6.82;;;2.58;;
10473;SDS011;5284;50.446;7.904;2022-08-14T13:15:52;6.13;;;3.38;;
10473;SDS011;5284;50.446;7.904;2022-08-14T13:20:59;9.00;;;3.00;;
10473;SDS011;5284;50.446;7.904;2022-08-14T13:26:05;3.65;;;2.72;;
10473;SDS011;5284;50.446;7.904;2022-08-14T13:31:08;6.38;;;3.10;;
10473;SDS011;5284;50.446;7.904;2022-08-14T13:36:16;2.25;;;2.05;;
10473;SDS011;5284;50.446;7.904;2022-08-14T13:41:26;3.33;;;2.20;;
10473;SDS011;5284;50.446;7.904;2022-08-14T13:46:36;3.50;;;2.28;;
10473;SDS011;5284;50.446;7.904;2022-08-14T13:51:46;1.95;;;1.83;;
10473;SDS011;5284;50.446;7.904;2022-08-14T13:56:53;1.80;;;1.70;;
10473;SDS011;5284;50.446;7.904;2022-08-14T14:01:58;3.33;;;2.03;;
10473;SDS011;5284;50.446;7.904;2022-08-14T14:07:10;9.43;;;2.00;;
10473;SDS011;5284;50.446;7.904;2022-08-14T14:12:16;2.13;;;1.90;;
10473;SDS011;5284;50.446;7.904;2022-08-14T14:17:39;2.58;;;2.22;;
10473;SDS011;5284;50.446;7.904;2022-08-14T14:22:46;5.07;;;2.03;;
10473;SDS011;5284;50.446;7.904;2022-08-14T14:28:03;2.70;;;2.50;;
10473;SDS011;5284;50.446;7.904;2022-08-14T14:33:07;4.30;;;2.30;;
10473;SDS011;5284;50.446;7.904;2022-08-14T14:38:33;5.72;;;2.72;;
10473;SDS011;5284;50.446;7.904;2022-08-14T14:43:41;3.65;;;2.75;;
10473;SDS011;5284;50.446;7.904;2022-08-14T14:48:52;2.92;;;2.63;;
10473;SDS011;5284;50.446;7.904;2022-08-14T14:53:56;6.85;;;2.53;;
10473;SDS011;5284;50.446;7.904;2022-08-14T14:59:01;3.97;;;2.60;;
10473;SDS011;5284;50.446;7.904;2022-08-14T15:04:06;3.58;;;2.80;;
10473;SDS011;5284;50.446;7.904;2022-08-14T15:09:22;6.15;;;2.88;;
10473;SDS011;5284;50.446;7.904;2022-08-14T15:14:25;4.18;;;3.05;;
10473;SDS011;5284;50.446;7.904;2022-08-14T15:19:48;3.90;;;3.47;;
10473;SDS011;5284;50.446;7.904;2022-08-14T15:24:58;5.45;;;3.50;;
10473;SDS011;5284;50.446;7.904;2022-08-14T15:30:02;4.57;;;3.75;;
10473;SDS011;5284;50.446;7.904;2022-08-14T15:35:08;7.78;;;3.53;;
10473;SDS011;5284;50.446;7.904;2022-08-14T15:40:13;3.77;;;3.17;;
10473;SDS011;5284;50.446;7.904;2022-08-14T15:45:23;3.35;;;3.05;;
10473;SDS011;5284;50.446;7.904;2022-08-14T15:50:27;9.30;;;3.65;;
10473;SDS011;5284;50.446;7.904;2022-08-14T15:55:32;6.72;;;2.97;;
10473;SDS011;5284;50.446;7.904;2022-08-14T16:00:35;7.03;;;3.45;;
10473;SDS011;5284;50.446;7.904;2022-08-14T16:05:57;4.90;;;3.90;;
10473;SDS011;5284;50.446;7.904;2022-08-14T16:11:04;6.40;;;4.00;;
10473;SDS011;5284;50.446;7.904;2022-08-14T16:16:11;5.72;;;4.47;;
10473;SDS011;5284;50.446;7.904;2022-08-14T16:21:37;5.20;;;3.92;;
10473;SDS011;5284;50.446;7.904;2022-08-14T16:27:03;9.98;;;4.57;;
10473;SDS011;5284;50.446;7.904;2022-08-14T16:32:10;5.70;;;4.47;;
10473;SDS011;5284;50.446;7.904;2022-08-14T16:37:35;8.70;;;4.85;;
10473;SDS011;5284;50.446;7.904;2022-08-14T16:42:45;6.30;;;4.60;;
10473;SDS011;5284;50.446;7.904;2022-08-14T16:48:10;5.75;;;4.63;;
10473;SDS011;5284;50.446;7.904;2022-08-14T16:53:33;15.02;;;4.70;;
10473;SDS011;5284;50.446;7.904;2022-08-14T16:58:38;9.50;;;4.47;;
10473;SDS011;5284;50.446;7.904;2022-08-14T17:03:51;7.82;;;4.70;;
10473;SDS011;5284;50.446;7.904;2022-08-14T17:08:56;11.10;;;5.17;;
10473;SDS011;5284;50.446;7.904;2022-08-14T17:14:00;6.55;;;5.20;;
10473;SDS011;5284;50.446;7.904;2022-08-14T17:19:07;8.63;;;4.40;;
10473;SDS011;5284;50.446;7.904;2022-08-14T17:24:18;8.30;;;5.10;;
10473;SDS011;5284;50.446;7.904;2022-08-14T17:29:43;9.88;;;5.28;;
10473;SDS011;5284;50.446;7.904;2022-08-14T17:34:57;11.50;;;4.85;;
10473;SDS011;5284;50.446;7.904;2022-08-14T17:40:04;11.53;;;5.20;;
10473;SDS011;5284;50.446;7.904;2022-08-14T17:45:18;8.65;;;4.30;;
10473;SDS011;5284;50.446;7.904;2022-08-14T17:50:42;6.65;;;4.80;;
10473;SDS011;5284;50.446;7.904;2022-08-14T17:56:01;10.52;;;4.75;;
10473;SDS011;5284;50.446;7.904;2022-08-14T18:01:06;12.68;;;4.90;;
10473;SDS011;5284;50.446;7.904;2022-08-14T18:06:14;10.13;;;5.82;;
10473;SDS011;5284;50.446;7.904;2022-08-14T18:11:39;8.40;;;5.63;;
10473;SDS011;5284;50.446;7.904;2022-08-14T18:16:48;10.20;;;5.07;;
10473;SDS011;5284;50.446;7.904;2022-08-14T18:21:54;9.18;;;5.82;;
10473;SDS011;5284;50.446;7.904;2022-08-14T18:27:00;9.00;;;4.93;;
10473;SDS011;5284;50.446;7.904;2022-08-14T18:38:15;9.43;;;5.73;;
10473;SDS011;5284;50.446;7.904;2022-08-14T18:43:43;11.25;;;4.82;;
10473;SDS011;5284;50.446;7.904;2022-08-14T18:49:13;9.65;;;5.45;;
10473;SDS011;5284;50.446;7.904;2022-08-14T18:54:26;9.77;;;5.40;;
10473;SDS011;5284;50.446;7.904;2022-08-14T18:59:35;8.57;;;5.72;;
10473;SDS011;5284;50.446;7.904;2022-08-14T19:04:44;11.88;;;5.40;;
10473;SDS011;5284;50.446;7.904;2022-08-14T19:09:51;21.33;;;5.85;;
10473;SDS011;5284;50.446;7.904;2022-08-14T19:15:05;10.57;;;5.50;;
10473;SDS011;5284;50.446;7.904;2022-08-14T19:20:11;7.53;;;5.75;;
10473;SDS011;5284;50.446;7.904;2022-08-14T19:36:44;15.82;;;5.95;;
10473;SDS011;5284;50.446;7.904;2022-08-14T19:42:06;10.93;;;6.15;;
10473;SDS011;5284;50.446;7.904;2022-08-14T19:47:13;16.30;;;6.13;;
10473;SDS011;5284;50.446;7.904;2022-08-14T19:52:20;18.88;;;7.00;;
10473;SDS011;5284;50.446;7.904;2022-08-14T19:57:24;12.73;;;5.50;;
10473;SDS011;5284;50.446;7.904;2022-08-14T20:02:29;12.02;;;6.55;;
10473;SDS011;5284;50.446;7.904;2022-08-14T20:07:39;17.98;;;6.35;;
10473;SDS011;5284;50.446;7.904;2022-08-14T20:13:01;12.60;;;6.25;;
10473;SDS011;5284;50.446;7.904;2022-08-14T20:18:07;12.05;;;5.95;;
10473;SDS011;5284;50.446;7.904;2022-08-14T20:23:31;8.73;;;6.13;;
10473;SDS011;5284;50.446;7.904;2022-08-14T20:28:39;11.60;;;6.20;;
10473;SDS011;5284;50.446;7.904;2022-08-14T20:34:01;10.27;;;6.18;;
10473;SDS011;5284;50.446;7.904;2022-08-14T20:39:08;24.45;;;6.18;;
10473;SDS011;5284;50.446;7.904;2022-08-14T20:44:18;15.90;;;6.68;;
10473;SDS011;5284;50.446;7.904;2022-08-14T20:49:38;16.42;;;6.82;;
10473;SDS011;5284;50.446;7.904;2022-08-14T20:54:43;11.23;;;5.45;;
10473;SDS011;5284;50.446;7.904;2022-08-14T20:59:51;8.00;;;5.80;;
10473;SDS011;5284;50.446;7.904;2022-08-14T21:05:00;15.30;;;6.80;;
10473;SDS011;5284;50.446;7.904;2022-08-14T21:10:18;12.93;;;5.32;;
10473;SDS011;5284;50.446;7.904;2022-08-14T21:15:37;13.50;;;6.93;;
10473;SDS011;5284;50.446;7.904;2022-08-14T21:20:41;14.50;;;6.50;;
10473;SDS011;5284;50.446;7.904;2022-08-14T21:25:46;14.93;;;6.50;;
10473;SDS011;5284;50.446;7.904;2022-08-14T21:30:49;18.08;;;7.75;;
10473;SDS011;5284;50.446;7.904;2022-08-14T21:35:57;12.60;;;6.82;;
10473;SDS011;5284;50.446;7.904;2022-08-14T21:41:09;11.57;;;6.13;;
10473;SDS011;5284;50.446;7.904;2022-08-14T21:46:43;13.98;;;6.68;;
10473;SDS011;5284;50.446;7.904;2022-08-14T21:51:50;13.13;;;6.38;;
10473;SDS011;5284;50.446;7.904;2022-08-14T21:57:05;15.30;;;6.18;;
10473;SDS011;5284;50.446;7.904;2022-08-14T22:02:15;16.98;;;5.80;;
10473;SDS011;5284;50.446;7.904;2022-08-14T22:07:35;10.10;;;7.22;;
10473;SDS011;5284;50.446;7.904;2022-08-14T22:12:40;9.33;;;6.77;;
10473;SDS011;5284;50.446;7.904;2022-08-14T22:18:01;9.93;;;6.25;;
10473;SDS011;5284;50.446;7.904;2022-08-14T22:23:08;12.48;;;6.93;;
10473;SDS011;5284;50.446;7.904;2022-08-14T22:28:16;12.40;;;7.20;;
10473;SDS011;5284;50.446;7.904;2022-08-14T22:33:27;10.60;;;6.50;;
10473;SDS011;5284;50.446;7.904;2022-08-14T22:38:33;11.70;;;7.10;;
10473;SDS011;5284;50.446;7.904;2022-08-14T22:43:50;12.50;;;7.40;;
10473;SDS011;5284;50.446;7.904;2022-08-14T22:48:55;15.35;;;6.38;;
10473;SDS011;5284;50.446;7.904;2022-08-14T22:53:59;12.38;;;6.55;;
10473;SDS011;5284;50.446;7.904;2022-08-14T22:59:05;10.65;;;5.78;;
10473;SDS011;5284;50.446;7.904;2022-08-14T23:04:14;8.70;;;6.35;;
10473;SDS011;5284;50.446;7.904;2022-08-14T23:09:40;9.55;;;7.03;;
10473;SDS011;5284;50.446;7.904;2022-08-14T23:14:58;9.38;;;6.68;;
10473;SDS011;5284;50.446;7.904;2022-08-14T23:20:01;9.07;;;6.90;;
10473;SDS011;5284;50.446;7.904;2022-08-14T23:25:08;9.60;;;6.60;;
10473;SDS011;5284;50.446;7.904;2022-08-14T23:30:12;12.67;;;7.13;;
10473;SDS011;5284;50.446;7.904;2022-08-14T23:35:37;10.68;;;6.72;;
10473;SDS011;5284;50.446;7.904;2022-08-14T23:41:02;17.90;;;7.65;;
10473;SDS011;5284;50.446;7.904;2022-08-14T23:46:10;13.70;;;6.78;;
10473;SDS011;5284;50.446;7.904;2022-08-14T23:51:16;11.13;;;6.72;;
10473;SDS011;5284;50.446;7.904;2022-08-14T23:56:22;8.63;;;6.38;;
